logo
Search for airport 
image banner adimage banner adimage banner ad
image banner ad

SHEB - Ejercito Bicentenario

Located in Santiago, Chile

ICAO - , IATA -

Data provided by Airmate  

General information

Coordinates: S33°27'27" W70°39'27"
Elevation is 1788 feet MSL.
 
View others Airports in Santiago Metropolitan Region

Operational data

Special qualification required
Current time UTC:
Current local time:
Weather at : SCTB - Eulogio Sanchez - Tobalaba ( 10 km )
METAR: SCTB 161900Z 22005KT 8000 NSC 21/M03 Q1019
View NOTAMs / SUP AIP / TFR affecting this airport [VIEW]
Communications frequencies: [VIEW]

Runways:

Airport contact information

Address: Santiago Chile

Satellite view of SHEB